sensor_id;sensor_type;location;lat;lon;timestamp;P1;durP1;ratioP1;P2;durP2;ratioP2
27003;SDS011;14546;47.590;19.022;2022-09-12T00:01:16;7.55;;;6.07;;
27003;SDS011;14546;47.590;19.022;2022-09-12T00:03:43;10.00;;;5.82;;
27003;SDS011;14546;47.590;19.022;2022-09-12T00:06:11;6.40;;;5.80;;
27003;SDS011;14546;47.590;19.022;2022-09-12T00:08:37;6.60;;;6.00;;
27003;SDS011;14546;47.590;19.022;2022-09-12T00:11:04;10.52;;;5.90;;
27003;SDS011;14546;47.590;19.022;2022-09-12T00:13:30;6.45;;;5.70;;
27003;SDS011;14546;47.590;19.022;2022-09-12T00:15:56;7.07;;;5.95;;
27003;SDS011;14546;47.590;19.022;2022-09-12T00:18:22;6.97;;;6.10;;
27003;SDS011;14546;47.590;19.022;2022-09-12T00:20:48;10.45;;;5.97;;
27003;SDS011;14546;47.590;19.022;2022-09-12T00:23:14;6.97;;;5.93;;
27003;SDS011;14546;47.590;19.022;2022-09-12T00:25:44;7.28;;;5.85;;
27003;SDS011;14546;47.590;19.022;2022-09-12T00:28:11;6.00;;;5.50;;
27003;SDS011;14546;47.590;19.022;2022-09-12T00:30:41;7.30;;;6.50;;
27003;SDS011;14546;47.590;19.022;2022-09-12T00:33:08;8.23;;;5.75;;
27003;SDS011;14546;47.590;19.022;2022-09-12T00:35:39;7.18;;;6.18;;
27003;SDS011;14546;47.590;19.022;2022-09-12T00:38:06;7.65;;;5.90;;
27003;SDS011;14546;47.590;19.022;2022-09-12T00:40:32;6.38;;;5.70;;
27003;SDS011;14546;47.590;19.022;2022-09-12T00:42:58;7.32;;;5.13;;
27003;SDS011;14546;47.590;19.022;2022-09-12T00:45:27;5.65;;;4.82;;
27003;SDS011;14546;47.590;19.022;2022-09-12T00:47:53;6.75;;;4.93;;
27003;SDS011;14546;47.590;19.022;2022-09-12T00:50:20;6.13;;;5.47;;
27003;SDS011;14546;47.590;19.022;2022-09-12T00:52:48;5.40;;;4.90;;
27003;SDS011;14546;47.590;19.022;2022-09-12T00:55:16;5.20;;;4.70;;
27003;SDS011;14546;47.590;19.022;2022-09-12T00:57:47;5.75;;;4.88;;
27003;SDS011;14546;47.590;19.022;2022-09-12T01:00:16;6.57;;;5.40;;
27003;SDS011;14546;47.590;19.022;2022-09-12T01:02:43;6.78;;;5.20;;
27003;SDS011;14546;47.590;19.022;2022-09-12T01:05:10;6.70;;;5.38;;
27003;SDS011;14546;47.590;19.022;2022-09-12T01:07:37;5.72;;;4.85;;
27003;SDS011;14546;47.590;19.022;2022-09-12T01:10:03;6.50;;;4.97;;
27003;SDS011;14546;47.590;19.022;2022-09-12T01:12:31;5.88;;;5.18;;
27003;SDS011;14546;47.590;19.022;2022-09-12T01:14:58;5.00;;;4.45;;
27003;SDS011;14546;47.590;19.022;2022-09-12T01:17:29;6.03;;;5.18;;
27003;SDS011;14546;47.590;19.022;2022-09-12T01:22:49;5.47;;;4.97;;
27003;SDS011;14546;47.590;19.022;2022-09-12T01:30:39;7.03;;;6.32;;
27003;SDS011;14546;47.590;19.022;2022-09-12T01:43:35;7.22;;;6.53;;
27003;SDS011;14546;47.590;19.022;2022-09-12T01:46:21;7.35;;;6.47;;
27003;SDS011;14546;47.590;19.022;2022-09-12T01:48:54;8.98;;;6.63;;
27003;SDS011;14546;47.590;19.022;2022-09-12T01:51:22;8.98;;;6.47;;
27003;SDS011;14546;47.590;19.022;2022-09-12T01:53:51;5.93;;;5.35;;
27003;SDS011;14546;47.590;19.022;2022-09-12T01:56:24;6.53;;;5.70;;
27003;SDS011;14546;47.590;19.022;2022-09-12T02:01:26;6.95;;;6.20;;
27003;SDS011;14546;47.590;19.022;2022-09-12T02:04:08;6.93;;;6.32;;
27003;SDS011;14546;47.590;19.022;2022-09-12T02:06:36;7.75;;;6.80;;
27003;SDS011;14546;47.590;19.022;2022-09-12T02:09:08;9.45;;;6.85;;
27003;SDS011;14546;47.590;19.022;2022-09-12T02:11:36;6.80;;;6.13;;
27003;SDS011;14546;47.590;19.022;2022-09-12T02:14:06;7.95;;;7.10;;
27003;SDS011;14546;47.590;19.022;2022-09-12T02:16:35;8.57;;;6.78;;
27003;SDS011;14546;47.590;19.022;2022-09-12T02:19:03;11.60;;;7.30;;
27003;SDS011;14546;47.590;19.022;2022-09-12T02:21:32;10.50;;;8.10;;
27003;SDS011;14546;47.590;19.022;2022-09-12T02:24:01;8.30;;;7.38;;
27003;SDS011;14546;47.590;19.022;2022-09-12T02:26:33;9.77;;;6.82;;
27003;SDS011;14546;47.590;19.022;2022-09-12T02:28:59;8.25;;;7.38;;
27003;SDS011;14546;47.590;19.022;2022-09-12T02:31:32;9.00;;;7.43;;
27003;SDS011;14546;47.590;19.022;2022-09-12T02:39:31;14.88;;;11.10;;
27003;SDS011;14546;47.590;19.022;2022-09-12T02:41:58;12.95;;;10.20;;
27003;SDS011;14546;47.590;19.022;2022-09-12T02:44:25;13.57;;;11.35;;
27003;SDS011;14546;47.590;19.022;2022-09-12T02:46:56;13.55;;;11.45;;
27003;SDS011;14546;47.590;19.022;2022-09-12T02:49:22;17.00;;;11.43;;
27003;SDS011;14546;47.590;19.022;2022-09-12T02:51:49;14.35;;;11.70;;
27003;SDS011;14546;47.590;19.022;2022-09-12T02:54:15;15.95;;;11.98;;
27003;SDS011;14546;47.590;19.022;2022-09-12T02:56:43;19.92;;;11.23;;
27003;SDS011;14546;47.590;19.022;2022-09-12T02:59:10;13.02;;;11.73;;
27003;SDS011;14546;47.590;19.022;2022-09-12T03:07:08;16.25;;;11.95;;
27003;SDS011;14546;47.590;19.022;2022-09-12T03:14:35;15.43;;;11.32;;
27003;SDS011;14546;47.590;19.022;2022-09-12T03:17:06;15.83;;;11.20;;
27003;SDS011;14546;47.590;19.022;2022-09-12T03:24:33;16.27;;;10.20;;
27003;SDS011;14546;47.590;19.022;2022-09-12T03:29:28;12.82;;;10.43;;
27003;SDS011;14546;47.590;19.022;2022-09-12T03:31:55;14.30;;;9.20;;
27003;SDS011;14546;47.590;19.022;2022-09-12T03:34:23;13.40;;;10.23;;
27003;SDS011;14546;47.590;19.022;2022-09-12T03:36:50;11.85;;;9.40;;
27003;SDS011;14546;47.590;19.022;2022-09-12T03:39:16;11.05;;;9.10;;
27003;SDS011;14546;47.590;19.022;2022-09-12T03:41:42;10.70;;;9.60;;
27003;SDS011;14546;47.590;19.022;2022-09-12T03:44:09;11.75;;;9.18;;
27003;SDS011;14546;47.590;19.022;2022-09-12T03:46:35;13.25;;;9.00;;
27003;SDS011;14546;47.590;19.022;2022-09-12T03:49:01;12.23;;;9.45;;
27003;SDS011;14546;47.590;19.022;2022-09-12T03:51:27;10.65;;;9.13;;
27003;SDS011;14546;47.590;19.022;2022-09-12T03:53:53;12.82;;;10.23;;
27003;SDS011;14546;47.590;19.022;2022-09-12T03:56:19;11.90;;;10.05;;
27003;SDS011;14546;47.590;19.022;2022-09-12T03:58:46;14.90;;;10.23;;
27003;SDS011;14546;47.590;19.022;2022-09-12T04:01:13;15.07;;;10.98;;
27003;SDS011;14546;47.590;19.022;2022-09-12T04:03:39;12.30;;;10.25;;
27003;SDS011;14546;47.590;19.022;2022-09-12T04:06:06;20.00;;;10.75;;
27003;SDS011;14546;47.590;19.022;2022-09-12T04:08:33;9.25;;;7.18;;
27003;SDS011;14546;47.590;19.022;2022-09-12T04:11:04;11.73;;;9.35;;
27003;SDS011;14546;47.590;19.022;2022-09-12T04:13:33;14.82;;;9.40;;
27003;SDS011;14546;47.590;19.022;2022-09-12T04:16:00;9.73;;;8.65;;
27003;SDS011;14546;47.590;19.022;2022-09-12T04:18:26;10.95;;;8.73;;
27003;SDS011;14546;47.590;19.022;2022-09-12T04:20:52;10.35;;;8.85;;
27003;SDS011;14546;47.590;19.022;2022-09-12T04:23:18;9.70;;;8.15;;
27003;SDS011;14546;47.590;19.022;2022-09-12T04:25:52;9.40;;;7.82;;
27003;SDS011;14546;47.590;19.022;2022-09-12T04:28:18;10.45;;;9.05;;
27003;SDS011;14546;47.590;19.022;2022-09-12T04:30:44;13.88;;;8.98;;
27003;SDS011;14546;47.590;19.022;2022-09-12T04:33:10;8.45;;;6.57;;
27003;SDS011;14546;47.590;19.022;2022-09-12T04:35:36;9.60;;;7.53;;
27003;SDS011;14546;47.590;19.022;2022-09-12T04:38:02;8.48;;;6.05;;
27003;SDS011;14546;47.590;19.022;2022-09-12T04:40:29;9.70;;;5.97;;
27003;SDS011;14546;47.590;19.022;2022-09-12T04:42:55;12.95;;;6.45;;
27003;SDS011;14546;47.590;19.022;2022-09-12T04:45:21;8.60;;;7.43;;
27003;SDS011;14546;47.590;19.022;2022-09-12T04:47:47;10.13;;;8.10;;
27003;SDS011;14546;47.590;19.022;2022-09-12T04:50:14;10.35;;;8.13;;
27003;SDS011;14546;47.590;19.022;2022-09-12T04:52:40;13.00;;;9.18;;
27003;SDS011;14546;47.590;19.022;2022-09-12T04:55:07;12.10;;;9.00;;
27003;SDS011;14546;47.590;19.022;2022-09-12T04:57:33;13.48;;;8.85;;
27003;SDS011;14546;47.590;19.022;2022-09-12T05:00:00;17.85;;;9.15;;
27003;SDS011;14546;47.590;19.022;2022-09-12T05:02:29;14.32;;;9.68;;
27003;SDS011;14546;47.590;19.022;2022-09-12T05:04:55;13.30;;;9.18;;
27003;SDS011;14546;47.590;19.022;2022-09-12T05:07:21;13.77;;;8.52;;
27003;SDS011;14546;47.590;19.022;2022-09-12T05:09:47;11.43;;;9.38;;
27003;SDS011;14546;47.590;19.022;2022-09-12T05:12:13;11.88;;;8.60;;
27003;SDS011;14546;47.590;19.022;2022-09-12T05:14:39;11.45;;;8.57;;
27003;SDS011;14546;47.590;19.022;2022-09-12T05:17:05;9.25;;;8.05;;
27003;SDS011;14546;47.590;19.022;2022-09-12T05:19:32;9.02;;;8.13;;
27003;SDS011;14546;47.590;19.022;2022-09-12T05:21:58;12.77;;;8.30;;
27003;SDS011;14546;47.590;19.022;2022-09-12T05:24:24;12.25;;;8.15;;
27003;SDS011;14546;47.590;19.022;2022-09-12T05:26:50;10.48;;;9.15;;
27003;SDS011;14546;47.590;19.022;2022-09-12T05:29:17;13.50;;;9.23;;
27003;SDS011;14546;47.590;19.022;2022-09-12T05:31:44;12.90;;;8.98;;
27003;SDS011;14546;47.590;19.022;2022-09-12T05:34:10;12.98;;;10.18;;
27003;SDS011;14546;47.590;19.022;2022-09-12T05:36:39;17.33;;;9.30;;
27003;SDS011;14546;47.590;19.022;2022-09-12T05:39:05;13.23;;;10.07;;
27003;SDS011;14546;47.590;19.022;2022-09-12T05:41:31;12.20;;;9.60;;
27003;SDS011;14546;47.590;19.022;2022-09-12T05:43:59;12.70;;;10.30;;
27003;SDS011;14546;47.590;19.022;2022-09-12T05:46:26;14.15;;;9.48;;
27003;SDS011;14546;47.590;19.022;2022-09-12T05:48:53;15.73;;;9.60;;
27003;SDS011;14546;47.590;19.022;2022-09-12T05:51:20;13.15;;;9.75;;
27003;SDS011;14546;47.590;19.022;2022-09-12T05:53:56;12.25;;;9.57;;
27003;SDS011;14546;47.590;19.022;2022-09-12T05:56:26;13.55;;;9.57;;
27003;SDS011;14546;47.590;19.022;2022-09-12T06:01:18;15.98;;;9.60;;
27003;SDS011;14546;47.590;19.022;2022-09-12T06:03:49;12.13;;;9.30;;
27003;SDS011;14546;47.590;19.022;2022-09-12T06:06:16;13.57;;;9.85;;
27003;SDS011;14546;47.590;19.022;2022-09-12T06:08:43;13.25;;;9.57;;
27003;SDS011;14546;47.590;19.022;2022-09-12T06:11:11;13.23;;;9.90;;
27003;SDS011;14546;47.590;19.022;2022-09-12T06:13:38;20.45;;;10.82;;
27003;SDS011;14546;47.590;19.022;2022-09-12T06:16:06;13.88;;;9.77;;
27003;SDS011;14546;47.590;19.022;2022-09-12T06:18:33;12.18;;;9.75;;
27003;SDS011;14546;47.590;19.022;2022-09-12T06:21:07;13.90;;;10.65;;
27003;SDS011;14546;47.590;19.022;2022-09-12T06:25:59;16.63;;;10.65;;
27003;SDS011;14546;47.590;19.022;2022-09-12T06:28:26;16.27;;;10.55;;
27003;SDS011;14546;47.590;19.022;2022-09-12T06:30:52;14.73;;;11.45;;
27003;SDS011;14546;47.590;19.022;2022-09-12T06:33:18;15.10;;;11.18;;
27003;SDS011;14546;47.590;19.022;2022-09-12T06:35:45;15.77;;;11.10;;
27003;SDS011;14546;47.590;19.022;2022-09-12T06:38:11;13.63;;;10.88;;
27003;SDS011;14546;47.590;19.022;2022-09-12T06:40:41;13.02;;;9.57;;
27003;SDS011;14546;47.590;19.022;2022-09-12T06:43:10;14.55;;;10.25;;
27003;SDS011;14546;47.590;19.022;2022-09-12T06:45:37;13.85;;;11.05;;
27003;SDS011;14546;47.590;19.022;2022-09-12T06:48:03;16.95;;;10.60;;
27003;SDS011;14546;47.590;19.022;2022-09-12T06:50:29;14.52;;;11.23;;
27003;SDS011;14546;47.590;19.022;2022-09-12T06:52:56;15.43;;;10.57;;
27003;SDS011;14546;47.590;19.022;2022-09-12T06:55:28;13.27;;;10.05;;
27003;SDS011;14546;47.590;19.022;2022-09-12T06:57:55;13.57;;;10.45;;
27003;SDS011;14546;47.590;19.022;2022-09-12T07:00:22;20.98;;;10.50;;
27003;SDS011;14546;47.590;19.022;2022-09-12T07:02:50;13.20;;;9.75;;
27003;SDS011;14546;47.590;19.022;2022-09-12T07:05:18;15.88;;;8.93;;
27003;SDS011;14546;47.590;19.022;2022-09-12T07:07:44;12.27;;;9.57;;
27003;SDS011;14546;47.590;19.022;2022-09-12T07:10:10;10.23;;;9.07;;
27003;SDS011;14546;47.590;19.022;2022-09-12T07:12:36;12.55;;;9.18;;
27003;SDS011;14546;47.590;19.022;2022-09-12T07:15:02;12.00;;;9.25;;
27003;SDS011;14546;47.590;19.022;2022-09-12T07:17:29;12.10;;;8.32;;
27003;SDS011;14546;47.590;19.022;2022-09-12T07:19:55;17.50;;;8.48;;
27003;SDS011;14546;47.590;19.022;2022-09-12T07:22:21;8.95;;;7.60;;
27003;SDS011;14546;47.590;19.022;2022-09-12T07:24:47;15.65;;;8.23;;
27003;SDS011;14546;47.590;19.022;2022-09-12T07:27:14;10.63;;;8.00;;
27003;SDS011;14546;47.590;19.022;2022-09-12T07:29:40;11.20;;;7.20;;
27003;SDS011;14546;47.590;19.022;2022-09-12T07:32:06;21.27;;;8.82;;
27003;SDS011;14546;47.590;19.022;2022-09-12T07:34:33;12.48;;;8.23;;
27003;SDS011;14546;47.590;19.022;2022-09-12T07:36:59;11.25;;;7.47;;
27003;SDS011;14546;47.590;19.022;2022-09-12T07:39:25;9.57;;;7.13;;
27003;SDS011;14546;47.590;19.022;2022-09-12T07:41:52;11.15;;;7.38;;
27003;SDS011;14546;47.590;19.022;2022-09-12T07:44:18;8.85;;;6.55;;
27003;SDS011;14546;47.590;19.022;2022-09-12T07:46:46;12.32;;;7.32;;
27003;SDS011;14546;47.590;19.022;2022-09-12T07:49:12;11.40;;;7.13;;
27003;SDS011;14546;47.590;19.022;2022-09-12T07:51:38;10.32;;;6.57;;
27003;SDS011;14546;47.590;19.022;2022-09-12T07:54:08;8.85;;;6.35;;
27003;SDS011;14546;47.590;19.022;2022-09-12T07:56:37;8.45;;;6.82;;
27003;SDS011;14546;47.590;19.022;2022-09-12T07:59:03;9.80;;;6.20;;
27003;SDS011;14546;47.590;19.022;2022-09-12T08:01:29;10.95;;;6.03;;
27003;SDS011;14546;47.590;19.022;2022-09-12T08:03:56;6.95;;;5.72;;
27003;SDS011;14546;47.590;19.022;2022-09-12T08:06:23;7.45;;;5.13;;
27003;SDS011;14546;47.590;19.022;2022-09-12T08:08:52;6.63;;;5.70;;
27003;SDS011;14546;47.590;19.022;2022-09-12T08:11:19;7.15;;;5.97;;
27003;SDS011;14546;47.590;19.022;2022-09-12T08:13:46;9.82;;;5.43;;
27003;SDS011;14546;47.590;19.022;2022-09-12T08:16:16;7.85;;;6.03;;
27003;SDS011;14546;47.590;19.022;2022-09-12T08:18:43;7.00;;;5.88;;
27003;SDS011;14546;47.590;19.022;2022-09-12T08:21:13;6.55;;;5.82;;
27003;SDS011;14546;47.590;19.022;2022-09-12T08:23:40;7.53;;;5.78;;
27003;SDS011;14546;47.590;19.022;2022-09-12T08:26:07;8.35;;;5.18;;
27003;SDS011;14546;47.590;19.022;2022-09-12T08:28:34;5.97;;;4.53;;
27003;SDS011;14546;47.590;19.022;2022-09-12T08:31:05;4.85;;;4.30;;
27003;SDS011;14546;47.590;19.022;2022-09-12T08:33:32;11.10;;;4.13;;
27003;SDS011;14546;47.590;19.022;2022-09-12T08:36:05;4.60;;;4.15;;
27003;SDS011;14546;47.590;19.022;2022-09-12T08:38:33;4.90;;;4.30;;
27003;SDS011;14546;47.590;19.022;2022-09-12T08:46:11;4.00;;;3.40;;
27003;SDS011;14546;47.590;19.022;2022-09-12T08:48:39;4.15;;;3.25;;
27003;SDS011;14546;47.590;19.022;2022-09-12T08:51:08;3.80;;;3.10;;
27003;SDS011;14546;47.590;19.022;2022-09-12T08:53:36;5.07;;;2.92;;
27003;SDS011;14546;47.590;19.022;2022-09-12T08:56:06;3.60;;;2.97;;
27003;SDS011;14546;47.590;19.022;2022-09-12T08:58:38;3.60;;;3.30;;
27003;SDS011;14546;47.590;19.022;2022-09-12T09:06:23;4.72;;;2.60;;
27003;SDS011;14546;47.590;19.022;2022-09-12T09:08:58;3.08;;;2.78;;
27003;SDS011;14546;47.590;19.022;2022-09-12T09:11:30;3.80;;;3.03;;
27003;SDS011;14546;47.590;19.022;2022-09-12T09:14:11;5.10;;;3.13;;
27003;SDS011;14546;47.590;19.022;2022-09-12T09:19:29;6.32;;;2.67;;
27003;SDS011;14546;47.590;19.022;2022-09-12T09:22:03;4.47;;;2.83;;
27003;SDS011;14546;47.590;19.022;2022-09-12T09:24:37;4.60;;;2.33;;
27003;SDS011;14546;47.590;19.022;2022-09-12T09:27:17;6.00;;;2.23;;
27003;SDS011;14546;47.590;19.022;2022-09-12T09:29:49;6.40;;;2.35;;
27003;SDS011;14546;47.590;19.022;2022-09-12T09:32:18;4.53;;;2.40;;
27003;SDS011;14546;47.590;19.022;2022-09-12T09:34:48;4.68;;;2.53;;
27003;SDS011;14546;47.590;19.022;2022-09-12T09:37:19;5.28;;;1.90;;
27003;SDS011;14546;47.590;19.022;2022-09-12T09:39:53;3.22;;;1.70;;
27003;SDS011;14546;47.590;19.022;2022-09-12T09:44:53;5.05;;;2.35;;
27003;SDS011;14546;47.590;19.022;2022-09-12T09:47:21;6.75;;;2.60;;
27003;SDS011;14546;47.590;19.022;2022-09-12T09:49:48;5.30;;;2.15;;
27003;SDS011;14546;47.590;19.022;2022-09-12T09:52:15;5.45;;;2.40;;
27003;SDS011;14546;47.590;19.022;2022-09-12T09:54:50;3.80;;;2.35;;
27003;SDS011;14546;47.590;19.022;2022-09-12T10:05:27;3.20;;;1.80;;
27003;SDS011;14546;47.590;19.022;2022-09-12T10:07:54;2.78;;;1.92;;
27003;SDS011;14546;47.590;19.022;2022-09-12T10:10:21;2.30;;;2.00;;
27003;SDS011;14546;47.590;19.022;2022-09-12T10:12:47;4.15;;;1.92;;
27003;SDS011;14546;47.590;19.022;2022-09-12T10:15:19;2.30;;;1.90;;
27003;SDS011;14546;47.590;19.022;2022-09-12T10:17:49;3.40;;;1.88;;
27003;SDS011;14546;47.590;19.022;2022-09-12T10:23:26;2.53;;;2.00;;
27003;SDS011;14546;47.590;19.022;2022-09-12T10:25:53;2.70;;;1.75;;
27003;SDS011;14546;47.590;19.022;2022-09-12T10:28:22;3.13;;;2.25;;
27003;SDS011;14546;47.590;19.022;2022-09-12T10:30:54;2.33;;;1.85;;
27003;SDS011;14546;47.590;19.022;2022-09-12T10:33:22;4.22;;;2.10;;
27003;SDS011;14546;47.590;19.022;2022-09-12T10:35:49;1.70;;;1.55;;
27003;SDS011;14546;47.590;19.022;2022-09-12T10:40:53;7.40;;;2.30;;
27003;SDS011;14546;47.590;19.022;2022-09-12T10:45:46;2.65;;;2.00;;
27003;SDS011;14546;47.590;19.022;2022-09-12T10:48:26;6.65;;;2.45;;
27003;SDS011;14546;47.590;19.022;2022-09-12T10:50:53;4.40;;;2.00;;
27003;SDS011;14546;47.590;19.022;2022-09-12T10:53:21;3.72;;;1.90;;
27003;SDS011;14546;47.590;19.022;2022-09-12T10:55:57;2.35;;;1.67;;
27003;SDS011;14546;47.590;19.022;2022-09-12T10:58:33;1.92;;;1.60;;
27003;SDS011;14546;47.590;19.022;2022-09-12T11:01:09;4.30;;;1.90;;
27003;SDS011;14546;47.590;19.022;2022-09-12T11:06:38;2.17;;;1.60;;
27003;SDS011;14546;47.590;19.022;2022-09-12T11:11:46;1.98;;;1.45;;
27003;SDS011;14546;47.590;19.022;2022-09-12T11:22:24;3.70;;;1.70;;
27003;SDS011;14546;47.590;19.022;2022-09-12T11:27:26;3.03;;;1.27;;
27003;SDS011;14546;47.590;19.022;2022-09-12T11:30:03;1.52;;;1.25;;
27003;SDS011;14546;47.590;19.022;2022-09-12T11:35:39;5.63;;;1.65;;
27003;SDS011;14546;47.590;19.022;2022-09-12T11:40:48;3.17;;;1.50;;
27003;SDS011;14546;47.590;19.022;2022-09-12T11:43:22;4.10;;;2.20;;
27003;SDS011;14546;47.590;19.022;2022-09-12T11:45:49;4.25;;;1.85;;
27003;SDS011;14546;47.590;19.022;2022-09-12T11:48:39;2.15;;;1.88;;
27003;SDS011;14546;47.590;19.022;2022-09-12T11:51:04;4.80;;;1.90;;
27003;SDS011;14546;47.590;19.022;2022-09-12T11:53:35;2.10;;;1.90;;
27003;SDS011;14546;47.590;19.022;2022-09-12T11:56:03;3.03;;;1.95;;
27003;SDS011;14546;47.590;19.022;2022-09-12T11:58:30;6.18;;;2.08;;
27003;SDS011;14546;47.590;19.022;2022-09-12T12:01:10;6.22;;;1.75;;
27003;SDS011;14546;47.590;19.022;2022-09-12T12:03:43;4.28;;;2.00;;
27003;SDS011;14546;47.590;19.022;2022-09-12T12:06:20;2.15;;;1.85;;
27003;SDS011;14546;47.590;19.022;2022-09-12T12:08:49;3.80;;;1.77;;
27003;SDS011;14546;47.590;19.022;2022-09-12T12:11:26;3.67;;;1.52;;
27003;SDS011;14546;47.590;19.022;2022-09-12T12:14:03;2.75;;;1.75;;
27003;SDS011;14546;47.590;19.022;2022-09-12T12:16:36;3.35;;;1.60;;
27003;SDS011;14546;47.590;19.022;2022-09-12T12:19:03;2.20;;;1.70;;
27003;SDS011;14546;47.590;19.022;2022-09-12T12:29:51;12.07;;;1.63;;
27003;SDS011;14546;47.590;19.022;2022-09-12T12:34:40;3.10;;;1.98;;
27003;SDS011;14546;47.590;19.022;2022-09-12T12:40:27;3.80;;;2.03;;
27003;SDS011;14546;47.590;19.022;2022-09-12T12:47:58;1.60;;;1.50;;
27003;SDS011;14546;47.590;19.022;2022-09-12T12:50:25;5.30;;;1.77;;
27003;SDS011;14546;47.590;19.022;2022-09-12T12:52:57;2.35;;;1.67;;
27003;SDS011;14546;47.590;19.022;2022-09-12T12:55:25;6.25;;;1.77;;
27003;SDS011;14546;47.590;19.022;2022-09-12T12:58:02;4.15;;;1.85;;
27003;SDS011;14546;47.590;19.022;2022-09-12T13:00:38;2.20;;;1.65;;
27003;SDS011;14546;47.590;19.022;2022-09-12T13:05:39;2.50;;;1.30;;
27003;SDS011;14546;47.590;19.022;2022-09-12T13:08:07;4.53;;;1.80;;
27003;SDS011;14546;47.590;19.022;2022-09-12T13:10:34;1.70;;;1.38;;
27003;SDS011;14546;47.590;19.022;2022-09-12T13:13:02;2.10;;;1.10;;
27003;SDS011;14546;47.590;19.022;2022-09-12T13:18:02;18.08;;;1.70;;
27003;SDS011;14546;47.590;19.022;2022-09-12T13:20:31;5.20;;;1.70;;
27003;SDS011;14546;47.590;19.022;2022-09-12T13:22:59;1.90;;;1.50;;
27003;SDS011;14546;47.590;19.022;2022-09-12T13:27:55;1.65;;;1.25;;
27003;SDS011;14546;47.590;19.022;2022-09-12T13:30:22;3.03;;;1.40;;
27003;SDS011;14546;47.590;19.022;2022-09-12T13:32:48;11.10;;;1.48;;
27003;SDS011;14546;47.590;19.022;2022-09-12T13:40:52;2.50;;;1.40;;
27003;SDS011;14546;47.590;19.022;2022-09-12T13:43:25;3.13;;;1.30;;
27003;SDS011;14546;47.590;19.022;2022-09-12T13:45:56;1.35;;;1.25;;
27003;SDS011;14546;47.590;19.022;2022-09-12T13:48:22;1.30;;;1.00;;
27003;SDS011;14546;47.590;19.022;2022-09-12T13:53:16;1.52;;;1.10;;
27003;SDS011;14546;47.590;19.022;2022-09-12T13:55:46;1.63;;;0.90;;
27003;SDS011;14546;47.590;19.022;2022-09-12T14:01:05;4.28;;;0.90;;
27003;SDS011;14546;47.590;19.022;2022-09-12T14:03:33;0.80;;;0.80;;
27003;SDS011;14546;47.590;19.022;2022-09-12T14:06:18;1.33;;;0.82;;
27003;SDS011;14546;47.590;19.022;2022-09-12T14:08:45;8.45;;;0.90;;
27003;SDS011;14546;47.590;19.022;2022-09-12T14:11:30;1.15;;;0.80;;
27003;SDS011;14546;47.590;19.022;2022-09-12T14:13:57;2.05;;;0.95;;
27003;SDS011;14546;47.590;19.022;2022-09-12T14:16:25;3.22;;;0.85;;
27003;SDS011;14546;47.590;19.022;2022-09-12T14:18:52;2.83;;;0.80;;
27003;SDS011;14546;47.590;19.022;2022-09-12T14:21:25;1.58;;;1.10;;
27003;SDS011;14546;47.590;19.022;2022-09-12T14:23:55;4.03;;;0.90;;
27003;SDS011;14546;47.590;19.022;2022-09-12T14:26:21;1.13;;;0.70;;
27003;SDS011;14546;47.590;19.022;2022-09-12T14:28:48;2.47;;;0.88;;
27003;SDS011;14546;47.590;19.022;2022-09-12T14:33:49;2.13;;;0.80;;
27003;SDS011;14546;47.590;19.022;2022-09-12T14:39:35;2.38;;;1.10;;
27003;SDS011;14546;47.590;19.022;2022-09-12T14:41:36;1.67;;;0.80;;
27003;SDS011;14546;47.590;19.022;2022-09-12T14:44:06;3.85;;;0.98;;
27003;SDS011;14546;47.590;19.022;2022-09-12T14:46:38;1.60;;;0.90;;
27003;SDS011;14546;47.590;19.022;2022-09-12T14:56:58;1.00;;;0.80;;
27003;SDS011;14546;47.590;19.022;2022-09-12T14:59:29;0.93;;;0.82;;
27003;SDS011;14546;47.590;19.022;2022-09-12T15:04:47;5.82;;;1.00;;
27003;SDS011;14546;47.590;19.022;2022-09-12T15:12:40;2.65;;;0.90;;
27003;SDS011;14546;47.590;19.022;2022-09-12T15:15:14;2.35;;;0.85;;
27003;SDS011;14546;47.590;19.022;2022-09-12T15:17:49;2.85;;;0.93;;
27003;SDS011;14546;47.590;19.022;2022-09-12T15:20:19;1.30;;;0.90;;
27003;SDS011;14546;47.590;19.022;2022-09-12T15:22:50;7.32;;;0.90;;
27003;SDS011;14546;47.590;19.022;2022-09-12T15:25:18;0.98;;;0.80;;
27003;SDS011;14546;47.590;19.022;2022-09-12T15:27:47;4.07;;;1.00;;
27003;SDS011;14546;47.590;19.022;2022-09-12T15:30:16;2.10;;;0.90;;
27003;SDS011;14546;47.590;19.022;2022-09-12T15:32:43;2.55;;;0.88;;
27003;SDS011;14546;47.590;19.022;2022-09-12T15:35:23;2.53;;;0.90;;
27003;SDS011;14546;47.590;19.022;2022-09-12T15:37:54;6.77;;;1.00;;
27003;SDS011;14546;47.590;19.022;2022-09-12T15:40:21;3.50;;;0.77;;
27003;SDS011;14546;47.590;19.022;2022-09-12T15:42:54;6.28;;;0.90;;
27003;SDS011;14546;47.590;19.022;2022-09-12T15:45:21;1.75;;;0.77;;
27003;SDS011;14546;47.590;19.022;2022-09-12T15:47:58;1.50;;;1.15;;
27003;SDS011;14546;47.590;19.022;2022-09-12T15:50:27;3.13;;;0.93;;
27003;SDS011;14546;47.590;19.022;2022-09-12T15:52:55;1.55;;;0.90;;
27003;SDS011;14546;47.590;19.022;2022-09-12T15:55:31;5.25;;;1.20;;
27003;SDS011;14546;47.590;19.022;2022-09-12T15:57:59;3.13;;;0.90;;
27003;SDS011;14546;47.590;19.022;2022-09-12T16:00:30;5.28;;;1.02;;
27003;SDS011;14546;47.590;19.022;2022-09-12T16:03:00;1.67;;;0.90;;
27003;SDS011;14546;47.590;19.022;2022-09-12T16:05:28;2.80;;;0.98;;
27003;SDS011;14546;47.590;19.022;2022-09-12T16:07:55;3.28;;;1.20;;
27003;SDS011;14546;47.590;19.022;2022-09-12T16:10:26;1.67;;;1.00;;
27003;SDS011;14546;47.590;19.022;2022-09-12T16:12:57;2.50;;;1.00;;
27003;SDS011;14546;47.590;19.022;2022-09-12T16:15:24;8.88;;;2.83;;
27003;SDS011;14546;47.590;19.022;2022-09-12T16:17:52;3.55;;;1.08;;
27003;SDS011;14546;47.590;19.022;2022-09-12T16:20:24;5.82;;;1.70;;
27003;SDS011;14546;47.590;19.022;2022-09-12T16:22:52;6.10;;;1.15;;
27003;SDS011;14546;47.590;19.022;2022-09-12T16:25:19;1.13;;;0.90;;
27003;SDS011;14546;47.590;19.022;2022-09-12T16:27:49;3.42;;;1.05;;
27003;SDS011;14546;47.590;19.022;2022-09-12T16:30:16;10.32;;;2.42;;
27003;SDS011;14546;47.590;19.022;2022-09-12T16:32:46;1.60;;;1.00;;
27003;SDS011;14546;47.590;19.022;2022-09-12T16:35:12;2.38;;;0.88;;
27003;SDS011;14546;47.590;19.022;2022-09-12T16:37:39;5.35;;;1.23;;
27003;SDS011;14546;47.590;19.022;2022-09-12T16:40:06;0.95;;;0.77;;
27003;SDS011;14546;47.590;19.022;2022-09-12T16:42:33;1.05;;;0.90;;
27003;SDS011;14546;47.590;19.022;2022-09-12T16:45:09;1.85;;;0.80;;
27003;SDS011;14546;47.590;19.022;2022-09-12T16:47:36;4.47;;;1.85;;
27003;SDS011;14546;47.590;19.022;2022-09-12T16:50:03;3.78;;;1.10;;
27003;SDS011;14546;47.590;19.022;2022-09-12T16:52:30;2.78;;;1.05;;
27003;SDS011;14546;47.590;19.022;2022-09-12T16:55:01;1.55;;;0.95;;
27003;SDS011;14546;47.590;19.022;2022-09-12T16:57:46;3.95;;;1.38;;
27003;SDS011;14546;47.590;19.022;2022-09-12T17:00:14;3.67;;;1.05;;
27003;SDS011;14546;47.590;19.022;2022-09-12T17:02:44;2.72;;;0.90;;
27003;SDS011;14546;47.590;19.022;2022-09-12T17:05:12;2.83;;;1.30;;
27003;SDS011;14546;47.590;19.022;2022-09-12T17:07:41;1.88;;;1.08;;
27003;SDS011;14546;47.590;19.022;2022-09-12T17:10:07;1.75;;;1.13;;
27003;SDS011;14546;47.590;19.022;2022-09-12T17:12:33;6.90;;;1.10;;
27003;SDS011;14546;47.590;19.022;2022-09-12T17:14:59;5.38;;;1.10;;
27003;SDS011;14546;47.590;19.022;2022-09-12T17:17:26;7.45;;;1.30;;
27003;SDS011;14546;47.590;19.022;2022-09-12T17:19:52;2.28;;;1.10;;